Time;durP1;ratioP1;P1;durP2;ratioP2;P2;SDS_P1;SDS_P2;PMS_P1;PMS_P2;Temp;Humidity;BMP_temperature;BMP_pressure;BME280_temperature;BME280_humidity;BME280_pressure;Samples;Min_cycle;Max_cycle;Signal;HPM_P1;HPM_P2
2023/11/29 00:00:51;;;;;;;1.27;1.17;;;-0.80;1.00;;;;;;4915899;29;20043;-90
2023/11/29 00:03:17;;;;;;;3.20;2.13;;;-0.70;1.00;;;;;;4939591;29;20048;-89
2023/11/29 00:05:44;;;;;;;0.22;0.22;;;-0.70;1.00;;;;;;4936074;29;20040;-88
2023/11/29 00:08:10;;;;;;;0.50;0.50;;;-0.80;1.00;;;;;;4942441;29;20031;-88
2023/11/29 00:10:36;;;;;;;1.10;1.00;;;-0.70;1.00;;;;;;4956916;29;20035;-89
2023/11/29 00:13:03;;;;;;;1.92;1.65;;;-0.80;1.00;;;;;;4958047;29;20040;-89
2023/11/29 00:15:29;;;;;;;1.27;1.23;;;-0.80;1.00;;;;;;4959525;29;20032;-89
2023/11/29 00:17:56;;;;;;;15.13;1.88;;;-0.90;1.00;;;;;;4947724;29;20070;-88
2023/11/29 00:20:22;;;;;;;2.42;1.98;;;-1.00;1.90;;;;;;4945941;29;20409;-88
2023/11/29 00:22:48;;;;;;;1.95;1.85;;;-1.10;4.30;;;;;;4921912;29;20047;-89
2023/11/29 00:25:15;;;;;;;0.85;0.85;;;-1.10;19.00;;;;;;4926733;29;20054;-88
2023/11/29 00:27:41;;;;;;;1.55;0.73;;;-1.10;40.90;;;;;;4936235;29;20043;-88
2023/11/29 00:30:07;;;;;;;0.60;0.60;;;-1.10;59.50;;;;;;4949517;29;20044;-89
2023/11/29 00:32:34;;;;;;;2.00;1.48;;;-1.00;70.30;;;;;;4933401;29;20392;-89
2023/11/29 00:35:00;;;;;;;0.50;0.50;;;-1.10;77.50;;;;;;4951273;29;20035;-89
2023/11/29 00:37:27;;;;;;;1.27;1.17;;;-1.20;60.90;;;;;;4933616;29;20055;-89
2023/11/29 00:39:53;;;;;;;3.00;1.25;;;-1.30;54.80;;;;;;4930492;29;20035;-89
2023/11/29 00:42:19;;;;;;;0.30;0.30;;;-1.50;47.90;;;;;;4953512;29;20043;-90
2023/11/29 00:44:45;;;;;;;1.80;1.50;;;-1.50;66.00;;;;;;4951120;29;20034;-89
2023/11/29 00:47:11;;;;;;;7.20;1.17;;;-1.60;87.60;;;;;;4947775;29;20046;-90
2023/11/29 00:49:38;;;;;;;1.00;0.85;;;-1.60;85.10;;;;;;4954280;29;20520;-89
2023/11/29 00:52:04;;;;;;;1.55;1.27;;;-1.60;99.90;;;;;;4949232;29;20039;-90
2023/11/29 00:54:30;;;;;;;3.60;1.02;;;-1.60;99.90;;;;;;4929904;28;20051;-87
2023/11/29 00:56:57;;;;;;;1.50;1.15;;;-1.60;99.90;;;;;;4938115;29;20043;-90
2023/11/29 00:59:23;;;;;;;1.30;1.17;;;-1.60;99.90;;;;;;4933268;29;20039;-90
2023/11/29 01:01:49;;;;;;;3.40;1.85;;;-1.60;99.90;;;;;;4950913;29;20036;-89
2023/11/29 01:04:15;;;;;;;2.40;2.22;;;-1.70;99.90;;;;;;4931711;29;20050;-89
2023/11/29 01:06:42;;;;;;;1.65;1.15;;;-1.90;99.90;;;;;;4945287;29;20047;-91
2023/11/29 01:09:10;;;;;;;0.80;0.60;;;-2.00;99.90;;;;;;4953918;29;20034;-90
2023/11/29 01:11:36;;;;;;;0.70;0.70;;;-2.10;99.90;;;;;;4952264;29;20058;-91
2023/11/29 01:14:02;;;;;;;0.38;0.38;;;-2.20;99.90;;;;;;4954038;29;20500;-91
2023/11/29 01:16:28;;;;;;;2.15;2.05;;;-2.20;99.90;;;;;;4947696;29;20032;-90
2023/11/29 01:18:55;;;;;;;1.20;1.10;;;-2.20;99.90;;;;;;4956734;29;20416;-92
2023/11/29 01:21:21;;;;;;;0.28;0.28;;;-2.30;99.90;;;;;;4949915;29;20043;-91
2023/11/29 01:23:47;;;;;;;0.28;0.28;;;-2.30;99.90;;;;;;4950999;29;20046;-92
2023/11/29 01:26:13;;;;;;;0.88;0.70;;;-2.40;99.90;;;;;;4932332;29;20039;-92
2023/11/29 01:28:39;;;;;;;5.22;1.95;;;-2.40;99.90;;;;;;4947143;29;20659;-91
2023/11/29 01:31:06;;;;;;;0.55;0.55;;;-2.40;99.90;;;;;;4952120;29;20035;-92
2023/11/29 01:33:33;;;;;;;0.35;0.35;;;-2.50;99.90;;;;;;4931216;29;20055;-93
2023/11/29 01:36:10;;;;;;;0.20;0.20;;;-2.50;99.90;;;;;;4939701;29;20036;-92
2023/11/29 01:38:37;;;;;;;1.05;0.73;;;-2.40;99.90;;;;;;4947160;29;20031;-93
2023/11/29 01:41:03;;;;;;;1.85;1.75;;;-2.50;99.90;;;;;;4947260;29;20039;-92
2023/11/29 01:43:30;;;;;;;0.50;0.50;;;-2.50;99.90;;;;;;4936016;29;20046;-93
2023/11/29 01:45:56;;;;;;;1.70;1.30;;;-2.60;99.90;;;;;;5035731;23;20518;-92
2023/11/29 01:48:25;;;;;;;0.20;0.20;;;-2.60;99.90;;;;;;4949241;28;20051;-89
2023/11/29 01:50:52;;;;;;;2.45;1.75;;;-2.60;99.90;;;;;;4972459;28;20062;-92
2023/11/29 01:53:22;;;;;;;1.40;0.40;;;-2.60;99.90;;;;;;4954600;28;20058;-93
2023/11/29 01:55:52;;;;;;;0.22;0.22;;;-2.60;99.90;;;;;;4968123;28;20396;-91
2023/11/29 01:58:26;;;;;;;1.75;1.35;;;-2.60;99.90;;;;;;4955942;28;20050;-92
2023/11/29 02:00:54;;;;;;;0.22;0.22;;;-2.60;99.90;;;;;;4970533;28;20061;-92
2023/11/29 02:03:21;;;;;;;0.93;0.90;;;-2.50;99.90;;;;;;4971498;28;20049;-87
2023/11/29 02:05:48;;;;;;;1.40;1.30;;;-2.50;99.90;;;;;;4956111;28;20035;-92
2023/11/29 02:08:14;;;;;;;0.35;0.35;;;-2.50;99.90;;;;;;4957751;28;20050;-92
2023/11/29 02:10:41;;;;;;;0.45;0.45;;;-2.50;99.90;;;;;;4976139;28;20038;-92
2023/11/29 02:13:07;;;;;;;1.30;1.20;;;-2.50;99.90;;;;;;4975567;28;20046;-92
2023/11/29 02:15:34;;;;;;;1.13;0.45;;;-2.60;99.90;;;;;;4975442;28;20042;-92
2023/11/29 02:18:00;;;;;;;8.57;4.22;;;-2.70;99.90;;;;;;4975454;28;20034;-92
2023/11/29 02:20:26;;;;;;;3.30;1.88;;;-2.70;99.90;;;;;;4956409;28;20047;-90
2023/11/29 02:23:01;;;;;;;2.88;1.35;;;-2.80;99.90;;;;;;4959918;28;20046;-90
2023/11/29 02:25:27;;;;;;;0.10;0.10;;;-2.80;99.90;;;;;;4980645;28;20029;-87
2023/11/29 02:27:53;;;;;;;1.90;1.77;;;-2.70;99.90;;;;;;4975747;28;20039;-87
2023/11/29 02:30:19;;;;;;;2.30;1.25;;;-2.70;99.90;;;;;;4978370;28;20117;-91
2023/11/29 02:32:45;;;;;;;3.78;1.48;;;-2.70;99.90;;;;;;4963877;28;20046;-89
2023/11/29 02:35:11;;;;;;;0.95;0.43;;;-2.70;99.90;;;;;;4962639;28;20034;-91
2023/11/29 02:37:38;;;;;;;0.47;0.47;;;-2.70;99.90;;;;;;4948097;28;20035;-91
2023/11/29 02:40:05;;;;;;;0.10;0.10;;;-2.80;99.90;;;;;;4969682;28;20031;-91
2023/11/29 02:42:32;;;;;;;2.22;1.60;;;-2.80;99.90;;;;;;4968244;28;20030;-90
2023/11/29 02:44:58;;;;;;;4.47;1.58;;;-2.80;99.90;;;;;;4971502;28;20050;-91
2023/11/29 02:47:25;;;;;;;0.20;0.20;;;-2.90;99.90;;;;;;4954375;28;20035;-88
2023/11/29 02:49:51;;;;;;;0.22;0.22;;;-2.90;99.90;;;;;;4966064;28;20039;-90
2023/11/29 02:52:17;;;;;;;0.50;0.50;;;-2.90;99.90;;;;;;4968003;28;20023;-90
2023/11/29 02:54:43;;;;;;;0.68;0.68;;;-3.00;99.90;;;;;;4970236;28;20043;-92
2023/11/29 02:57:09;;;;;;;1.13;1.02;;;-3.00;1.00;;;;;;4949785;28;20062;-90
2023/11/29 02:59:35;;;;;;;0.55;0.30;;;-3.00;1.00;;;;;;4954178;28;20042;-91
2023/11/29 03:02:01;;;;;;;2.75;1.10;;;-2.80;1.00;;;;;;4971440;28;20449;-87
2023/11/29 03:04:28;;;;;;;0.40;0.40;;;-2.70;1.00;;;;;;4949066;28;20047;-88
2023/11/29 03:06:54;;;;;;;0.30;0.30;;;-2.70;1.00;;;;;;4958908;28;20031;-90
2023/11/29 03:09:20;;;;;;;0.08;0.08;;;-2.70;1.00;;;;;;4935106;28;20050;-86
2023/11/29 03:11:46;;;;;;;0.15;0.15;;;-2.60;1.00;;;;;;4951388;28;20047;-91
2023/11/29 03:14:12;;;;;;;0.63;0.63;;;-2.50;1.00;;;;;;4963155;28;20043;-90
2023/11/29 03:16:39;;;;;;;1.02;0.65;;;-2.50;1.00;;;;;;4964318;28;20042;-90
2023/11/29 03:19:05;;;;;;;0.73;0.73;;;-2.30;1.00;;;;;;4955912;28;20031;-89
2023/11/29 03:21:33;;;;;;;5.82;4.50;;;-2.10;99.90;;;;;;4979913;28;20034;-88
2023/11/29 03:23:59;;;;;;;6.22;5.82;;;-2.10;99.90;;;;;;4958776;28;20039;-91
2023/11/29 03:26:25;;;;;;;6.85;5.20;;;-2.00;99.90;;;;;;4962136;28;20046;-87
2023/11/29 03:28:51;;;;;;;12.25;9.23;;;-1.90;99.90;;;;;;4973415;28;20039;-91
2023/11/29 03:31:18;;;;;;;7.47;6.15;;;-1.90;99.90;;;;;;4950088;28;20054;-90
2023/11/29 03:33:44;;;;;;;6.97;5.07;;;-1.80;99.90;;;;;;4969595;28;20034;-91
2023/11/29 03:36:10;;;;;;;7.45;6.32;;;-1.80;99.90;;;;;;4969018;28;20032;-88
2023/11/29 03:38:36;;;;;;;5.43;3.17;;;-1.80;99.90;;;;;;4973642;28;20034;-90
2023/11/29 03:41:04;;;;;;;3.58;3.25;;;-1.70;99.90;;;;;;4970353;28;20395;-89
2023/11/29 03:43:30;;;;;;;5.25;2.22;;;-1.70;99.90;;;;;;4967014;28;20047;-90
2023/11/29 03:45:56;;;;;;;4.45;4.15;;;-1.60;99.90;;;;;;4966902;28;20062;-90
2023/11/29 03:48:22;;;;;;;5.82;4.00;;;-1.60;99.90;;;;;;4965772;28;20043;-90
2023/11/29 03:50:48;;;;;;;7.32;6.72;;;-1.50;99.90;;;;;;4950797;28;20131;-89
2023/11/29 03:53:15;;;;;;;3.08;2.83;;;-1.60;99.90;;;;;;4968608;28;20356;-90
2023/11/29 03:55:41;;;;;;;4.47;4.07;;;-1.60;99.90;;;;;;4971023;28;20030;-91
2023/11/29 03:58:07;;;;;;;2.40;2.30;;;-1.70;99.90;;;;;;4952214;28;20043;-89
2023/11/29 04:00:33;;;;;;;1.83;1.30;;;-1.70;99.90;;;;;;4973718;28;20030;-89
2023/11/29 04:02:59;;;;;;;8.25;1.42;;;-1.80;99.90;;;;;;4952529;28;20480;-89
2023/11/29 04:05:26;;;;;;;2.35;1.83;;;-1.70;99.90;;;;;;4967691;28;20043;-85
2023/11/29 04:07:52;;;;;;;4.55;2.63;;;-1.70;99.90;;;;;;4962993;28;20047;-87
2023/11/29 04:10:18;;;;;;;5.25;4.82;;;-1.70;99.90;;;;;;4970751;28;20031;-90
2023/11/29 04:12:45;;;;;;;6.07;4.50;;;-1.70;99.90;;;;;;4964408;28;20043;-89
2023/11/29 04:15:11;;;;;;;11.25;10.35;;;-1.70;99.90;;;;;;4955272;28;20066;-91
2023/11/29 04:17:37;;;;;;;6.22;5.82;;;-1.70;99.90;;;;;;4955244;28;20045;-91
2023/11/29 04:20:04;;;;;;;3.25;3.00;;;-1.70;99.90;;;;;;4969300;28;20046;-90
2023/11/29 04:22:31;;;;;;;1.70;1.50;;;-1.70;99.90;;;;;;4966995;28;20038;-88
2023/11/29 04:24:57;;;;;;;1.20;1.10;;;-1.70;99.90;;;;;;4969350;28;20043;-90
2023/11/29 04:27:23;;;;;;;1.77;1.67;;;-1.70;99.90;;;;;;4973486;28;20382;-91
2023/11/29 04:29:49;;;;;;;1.85;1.63;;;-1.60;99.90;;;;;;4953086;28;20043;-89
2023/11/29 04:32:16;;;;;;;0.65;0.65;;;-1.50;99.90;;;;;;4973825;28;20041;-89
2023/11/29 04:34:42;;;;;;;5.15;1.63;;;-1.50;99.90;;;;;;4971294;28;20056;-87
2023/11/29 04:37:08;;;;;;;2.70;2.28;;;-1.40;99.90;;;;;;4983315;28;20027;-87
2023/11/29 04:39:34;;;;;;;0.90;0.70;;;-1.30;99.90;;;;;;4978260;28;20023;-87
2023/11/29 04:42:01;;;;;;;0.95;0.95;;;-1.30;99.90;;;;;;4984430;28;20070;-89
2023/11/29 04:44:28;;;;;;;1.95;1.38;;;-1.20;99.90;;;;;;4948322;29;20047;-86
2023/11/29 04:46:54;;;;;;;1.42;1.33;;;-1.20;99.90;;;;;;4966858;28;20072;-89
2023/11/29 04:49:20;;;;;;;3.05;1.95;;;-1.10;99.90;;;;;;4963557;28;20051;-88
2023/11/29 04:51:46;;;;;;;5.10;3.97;;;-1.10;99.90;;;;;;4965037;28;20034;-87
2023/11/29 04:54:12;;;;;;;10.80;7.10;;;-1.10;99.90;;;;;;4971101;28;20062;-89
2023/11/29 04:56:38;;;;;;;24.77;11.15;;;-1.00;99.90;;;;;;4969227;28;20046;-90
2023/11/29 04:59:05;;;;;;;18.05;14.00;;;-1.00;99.90;;;;;;4955619;28;20054;-87
2023/11/29 05:01:31;;;;;;;23.83;14.95;;;-0.90;99.90;;;;;;4951237;28;20389;-86
2023/11/29 05:03:57;;;;;;;6.15;5.60;;;-1.00;99.90;;;;;;4947117;28;20043;-88
2023/11/29 05:06:25;;;;;;;3.28;2.97;;;-0.90;99.90;;;;;;4963568;28;20031;-88
2023/11/29 05:08:51;;;;;;;3.20;1.23;;;-0.90;99.90;;;;;;4962180;28;20062;-85
2023/11/29 05:11:17;;;;;;;2.25;2.05;;;-0.90;99.90;;;;;;4951459;28;20042;-85
2023/11/29 05:13:43;;;;;;;0.70;0.70;;;-0.90;99.90;;;;;;4969025;28;20034;-87
2023/11/29 05:16:10;;;;;;;2.90;1.55;;;-0.90;99.90;;;;;;4971816;28;20082;-87
2023/11/29 05:18:39;;;;;;;2.28;1.75;;;-0.90;99.90;;;;;;4982407;28;20047;-89
2023/11/29 05:21:05;;;;;;;2.78;2.10;;;-0.80;99.90;;;;;;4962365;28;20039;-86
2023/11/29 05:23:32;;;;;;;1.63;1.52;;;-0.80;99.90;;;;;;4963803;28;20031;-86
2023/11/29 05:25:58;;;;;;;1.52;1.42;;;-0.80;99.90;;;;;;4966631;28;20031;-88
2023/11/29 05:28:26;;;;;;;1.40;1.13;;;-0.80;99.90;;;;;;4968099;28;20487;-87
2023/11/29 05:30:53;;;;;;;2.10;1.98;;;-0.70;99.90;;;;;;4965056;28;20432;-87
2023/11/29 05:33:23;;;;;;;0.65;0.63;;;-0.70;99.90;;;;;;4960912;28;20027;-87
2023/11/29 05:35:49;;;;;;;0.85;0.85;;;-0.70;99.90;;;;;;4942720;28;20054;-89
2023/11/29 05:38:15;;;;;;;2.58;2.35;;;-0.60;99.90;;;;;;4969725;28;20034;-87
2023/11/29 05:40:42;;;;;;;0.68;0.68;;;-0.60;99.90;;;;;;4948582;28;20043;-88
2023/11/29 05:43:08;;;;;;;1.00;0.75;;;-0.60;99.90;;;;;;4960716;28;20043;-86
2023/11/29 05:45:35;;;;;;;0.57;0.40;;;-0.50;99.90;;;;;;4960330;28;20058;-86
2023/11/29 05:48:03;;;;;;;2.40;2.20;;;-0.50;99.90;;;;;;4948025;28;20042;-84
2023/11/29 05:50:29;;;;;;;1.60;1.50;;;-0.50;99.90;;;;;;4964966;28;20043;-83
2023/11/29 05:52:56;;;;;;;3.72;2.75;;;-0.50;99.90;;;;;;4963981;28;20037;-83
2023/11/29 05:55:22;;;;;;;2.03;1.63;;;-0.50;99.90;;;;;;4949326;28;20050;-82
2023/11/29 05:57:49;;;;;;;1.02;1.02;;;-0.60;99.90;;;;;;4968877;28;20384;-83
2023/11/29 06:00:18;;;;;;;4.13;2.47;;;-0.70;99.90;;;;;;4967403;28;20027;-83
2023/11/29 06:02:45;;;;;;;4.13;2.45;;;-0.70;99.90;;;;;;4962527;28;20044;-81
2023/11/29 06:05:11;;;;;;;1.80;1.70;;;-0.80;99.90;;;;;;4962076;28;20043;-83
2023/11/29 06:07:37;;;;;;;1.00;0.45;;;-0.90;99.90;;;;;;4961417;28;20484;-83
2023/11/29 06:10:05;;;;;;;1.30;1.20;;;-1.00;99.90;;;;;;4962412;28;20039;-82
2023/11/29 06:12:33;;;;;;;4.55;1.65;;;-1.00;99.90;;;;;;4962925;28;20047;-83
2023/11/29 06:15:04;;;;;;;3.13;1.95;;;-1.00;99.90;;;;;;4948725;28;20046;-83
2023/11/29 06:17:32;;;;;;;0.95;0.90;;;-1.10;99.90;;;;;;4961015;28;20388;-83
2023/11/29 06:19:59;;;;;;;1.48;1.38;;;-1.10;99.90;;;;;;4941057;28;20046;-84
2023/11/29 06:22:25;;;;;;;3.10;2.88;;;-1.10;99.90;;;;;;4963976;28;20040;-83
2023/11/29 06:24:52;;;;;;;3.88;2.47;;;-1.00;1.00;;;;;;4964168;28;20038;-84
2023/11/29 06:27:18;;;;;;;7.40;6.03;;;-0.90;1.00;;;;;;4948698;28;20050;-84
2023/11/29 06:29:44;;;;;;;13.80;10.30;;;-0.80;1.00;;;;;;4964553;28;20035;-86
2023/11/29 06:32:10;;;;;;;15.20;5.93;;;-0.50;99.90;;;;;;4968980;28;20043;-85
2023/11/29 06:34:36;;;;;;;14.25;12.90;;;-0.40;99.90;;;;;;4970799;28;20037;-85
2023/11/29 06:37:03;;;;;;;8.68;7.50;;;-0.30;99.90;;;;;;4951863;28;20050;-89
2023/11/29 06:39:30;;;;;;;9.02;5.15;;;-0.20;99.90;;;;;;4950283;28;20503;-82
2023/11/29 06:41:56;;;;;;;5.85;5.32;;;-0.10;99.90;;;;;;4961283;28;20037;-84
2023/11/29 06:44:23;;;;;;;3.53;3.22;;;0.00;99.90;;;;;;4965506;28;20074;-84
2023/11/29 06:46:49;;;;;;;3.35;1.40;;;0.00;99.90;;;;;;4965439;28;20128;-84
2023/11/29 06:49:15;;;;;;;2.33;2.15;;;0.10;99.90;;;;;;4970252;28;20503;-80
2023/11/29 06:51:41;;;;;;;2.80;1.60;;;0.20;99.90;;;;;;4969428;28;20042;-83
2023/11/29 06:54:07;;;;;;;0.85;0.85;;;0.20;99.90;;;;;;4968131;28;20053;-87
2023/11/29 06:56:33;;;;;;;2.28;2.17;;;0.30;99.90;;;;;;4970511;28;20043;-85
2023/11/29 06:59:00;;;;;;;1.88;1.77;;;0.30;99.90;;;;;;4968419;28;20034;-87
2023/11/29 07:01:26;;;;;;;5.07;2.10;;;0.40;99.90;;;;;;4965855;28;20034;-86
2023/11/29 07:03:52;;;;;;;0.68;0.68;;;0.50;99.90;;;;;;4971761;28;20045;-83
2023/11/29 07:06:21;;;;;;;4.75;2.65;;;0.50;99.90;;;;;;4956233;28;20047;-85
2023/11/29 07:08:47;;;;;;;2.92;2.28;;;0.50;99.90;;;;;;4956297;28;20043;-85
2023/11/29 07:11:13;;;;;;;1.33;1.23;;;0.40;99.90;;;;;;4967155;28;20069;-83
2023/11/29 07:13:42;;;;;;;6.38;1.85;;;0.50;99.90;;;;;;4968104;28;20030;-85
2023/11/29 07:16:09;;;;;;;0.63;0.60;;;0.50;99.90;;;;;;4968950;28;20046;-83
2023/11/29 07:18:37;;;;;;;1.48;1.38;;;0.60;99.90;;;;;;4969530;28;20054;-82
2023/11/29 07:21:04;;;;;;;1.88;1.48;;;0.60;99.90;;;;;;4945375;28;20062;-82
2023/11/29 07:23:30;;;;;;;2.35;2.15;;;0.60;99.90;;;;;;4971664;28;20027;-82
2023/11/29 07:25:57;;;;;;;3.28;0.95;;;0.70;99.90;;;;;;4972018;28;20030;-82
2023/11/29 07:28:24;;;;;;;1.70;1.60;;;0.70;99.90;;;;;;4954543;28;20046;-84
2023/11/29 07:30:51;;;;;;;0.55;0.55;;;0.80;99.90;;;;;;4953220;28;20034;-85
2023/11/29 07:33:17;;;;;;;1.98;1.80;;;0.90;99.90;;;;;;4943512;28;20043;-81
2023/11/29 07:35:44;;;;;;;0.30;0.30;;;0.90;99.90;;;;;;4967488;28;20039;-82
2023/11/29 07:38:10;;;;;;;0.75;0.73;;;1.00;99.90;;;;;;4968266;28;20039;-82
2023/11/29 07:40:37;;;;;;;4.68;3.90;;;1.00;99.90;;;;;;4950256;28;20054;-83
2023/11/29 07:43:03;;;;;;;3.72;3.45;;;1.00;99.90;;;;;;4959628;28;20046;-83
2023/11/29 07:45:30;;;;;;;1.48;1.38;;;1.10;99.90;;;;;;4966975;28;20515;-82
2023/11/29 07:47:56;;;;;;;1.48;1.38;;;1.10;99.90;;;;;;4967589;28;20031;-83
2023/11/29 07:50:23;;;;;;;1.90;0.75;;;1.10;98.10;;;;;;4954615;28;20047;-81
2023/11/29 07:52:49;;;;;;;1.00;1.00;;;1.10;90.90;;;;;;4960504;28;20038;-81
2023/11/29 07:55:15;;;;;;;0.95;0.77;;;1.10;83.80;;;;;;4961457;28;20039;-81
2023/11/29 07:57:42;;;;;;;1.83;1.73;;;1.00;87.20;;;;;;4967444;28;20042;-81
2023/11/29 08:00:12;;;;;;;3.28;1.42;;;1.00;91.60;;;;;;4967480;28;20598;-79
2023/11/29 08:02:41;;;;;;;1.33;1.17;;;1.00;95.10;;;;;;4962787;28;20058;-81
2023/11/29 08:05:07;;;;;;;0.82;0.82;;;1.00;93.70;;;;;;4964814;28;20035;-79
2023/11/29 08:07:33;;;;;;;5.03;1.58;;;0.90;94.90;;;;;;4966013;28;20043;-80
2023/11/29 08:10:03;;;;;;;1.23;1.13;;;0.90;93.40;;;;;;4967509;28;20097;-80
2023/11/29 08:12:29;;;;;;;1.88;1.65;;;0.90;93.40;;;;;;4968106;28;20361;-80
2023/11/29 08:14:55;;;;;;;4.78;1.17;;;0.90;91.00;;;;;;4962902;28;20051;-79
2023/11/29 08:17:22;;;;;;;0.88;0.88;;;1.00;75.90;;;;;;4966531;28;20415;-79
2023/11/29 08:19:48;;;;;;;1.13;1.13;;;1.10;69.10;;;;;;4965525;28;20035;-80
2023/11/29 08:22:14;;;;;;;0.50;0.50;;;1.20;55.70;;;;;;4968937;28;20035;-78
2023/11/29 08:24:40;;;;;;;0.38;0.38;;;1.30;34.70;;;;;;4964236;28;20054;-77
2023/11/29 08:27:09;;;;;;;0.52;0.52;;;1.40;23.80;;;;;;4932718;28;20043;-78
2023/11/29 08:29:35;;;;;;;1.02;1.02;;;1.40;16.60;;;;;;4966452;28;20023;-79
2023/11/29 08:32:01;;;;;;;1.40;1.30;;;1.50;9.00;;;;;;4947106;28;20031;-79
2023/11/29 08:34:27;;;;;;;0.82;0.82;;;1.50;4.40;;;;;;4945832;28;20058;-79
2023/11/29 08:36:54;;;;;;;1.70;1.60;;;1.50;3.60;;;;;;4944737;28;20063;-79
2023/11/29 08:39:21;;;;;;;3.40;2.30;;;1.60;1.00;;;;;;4966133;28;20086;-78
2023/11/29 08:41:48;;;;;;;0.17;0.17;;;1.50;1.00;;;;;;4963023;28;20042;-79
2023/11/29 08:44:15;;;;;;;0.85;0.60;;;1.50;1.00;;;;;;4967930;28;20043;-79
2023/11/29 08:46:42;;;;;;;1.05;1.05;;;1.60;1.00;;;;;;4964783;28;20066;-78
2023/11/29 08:49:08;;;;;;;1.48;1.38;;;1.60;1.00;;;;;;4963414;28;20031;-82
2023/11/29 08:51:34;;;;;;;1.67;1.45;;;1.70;1.00;;;;;;4963053;28;20053;-79
2023/11/29 08:54:01;;;;;;;2.88;2.50;;;1.80;1.00;;;;;;4966740;28;20031;-79
2023/11/29 08:56:27;;;;;;;0.40;0.40;;;1.80;1.00;;;;;;4944492;28;20057;-79
2023/11/29 08:58:55;;;;;;;1.85;1.40;;;1.80;2.00;;;;;;4964493;28;20037;-80
2023/11/29 09:01:21;;;;;;;0.82;0.82;;;1.80;13.50;;;;;;4962318;28;20035;-81
2023/11/29 09:03:48;;;;;;;0.85;0.82;;;1.80;15.90;;;;;;4968337;28;20035;-83
2023/11/29 09:06:15;;;;;;;2.17;1.65;;;1.80;36.20;;;;;;4963575;28;20471;-81
2023/11/29 09:08:43;;;;;;;0.73;0.73;;;1.80;50.10;;;;;;4959765;28;20038;-82
2023/11/29 09:11:09;;;;;;;0.57;0.57;;;1.80;55.20;;;;;;4962960;28;20065;-79
2023/11/29 09:13:35;;;;;;;1.60;0.88;;;1.90;66.20;;;;;;4965552;28;20054;-80
2023/11/29 09:16:05;;;;;;;0.80;0.80;;;2.00;62.80;;;;;;4966621;28;20043;-80
2023/11/29 09:18:31;;;;;;;1.77;1.45;;;2.10;53.40;;;;;;4964183;28;20039;-81
2023/11/29 09:20:59;;;;;;;2.00;1.88;;;2.10;53.20;;;;;;4958706;28;20046;-80
2023/11/29 09:23:25;;;;;;;0.60;0.60;;;2.20;51.80;;;;;;4963092;28;20037;-83
2023/11/29 09:25:54;;;;;;;2.53;1.85;;;2.20;36.60;;;;;;4967462;28;20035;-82
2023/11/29 09:28:21;;;;;;;6.72;0.85;;;2.20;42.10;;;;;;4963298;28;20380;-81
2023/11/29 09:30:47;;;;;;;0.52;0.52;;;2.10;40.80;;;;;;4958476;28;20376;-84
2023/11/29 09:33:13;;;;;;;0.20;0.20;;;2.00;38.80;;;;;;4963905;28;20034;-83
2023/11/29 09:35:42;;;;;;;3.25;2.20;;;1.90;52.40;;;;;;4964772;28;20038;-80
2023/11/29 09:38:09;;;;;;;1.27;1.17;;;1.90;68.50;;;;;;4963447;28;20461;-82
2023/11/29 09:40:39;;;;;;;0.73;0.73;;;1.80;66.50;;;;;;4968396;28;20034;-83
2023/11/29 09:43:07;;;;;;;7.95;1.50;;;1.70;70.10;;;;;;4943291;28;20023;-81
2023/11/29 09:45:34;;;;;;;3.35;2.00;;;1.70;76.60;;;;;;4963855;28;20051;-82
2023/11/29 09:48:00;;;;;;;1.52;1.42;;;1.80;75.00;;;;;;4948156;28;20047;-83
2023/11/29 09:50:27;;;;;;;0.65;0.65;;;1.90;71.50;;;;;;4960373;28;20420;-84
2023/11/29 09:52:55;;;;;;;1.05;1.05;;;2.00;60.00;;;;;;4962259;28;20043;-84
2023/11/29 09:55:21;;;;;;;2.15;1.95;;;2.00;33.70;;;;;;4960488;28;20047;-81
2023/11/29 09:57:50;;;;;;;5.47;1.85;;;2.00;11.40;;;;;;4965543;28;20039;-85
2023/11/29 10:00:16;;;;;;;1.95;1.30;;;2.00;12.00;;;;;;4964256;28;20417;-81
2023/11/29 10:02:43;;;;;;;1.98;1.48;;;2.00;22.00;;;;;;4957542;28;20031;-82
2023/11/29 10:05:14;;;;;;;0.98;0.98;;;2.10;15.10;;;;;;4941603;28;20396;-83
2023/11/29 10:07:41;;;;;;;1.00;0.98;;;2.10;6.20;;;;;;4967563;28;20076;-82
2023/11/29 10:10:08;;;;;;;1.85;1.20;;;2.10;2.30;;;;;;4962030;28;20043;-85
2023/11/29 10:12:42;;;;;;;0.52;0.52;;;2.00;1.00;;;;;;4960023;28;20500;-83
2023/11/29 10:15:09;;;;;;;0.88;0.88;;;2.10;1.00;;;;;;4943227;28;20053;-80
2023/11/29 10:17:35;;;;;;;0.73;0.73;;;2.10;1.50;;;;;;4964926;28;20039;-81
2023/11/29 10:20:02;;;;;;;1.05;0.85;;;2.10;1.00;;;;;;4964796;28;20034;-82
2023/11/29 10:22:29;;;;;;;1.67;1.58;;;2.10;1.00;;;;;;4959769;28;20046;-82
2023/11/29 10:24:55;;;;;;;0.80;0.80;;;2.10;1.00;;;;;;4963546;28;20392;-84
2023/11/29 10:27:24;;;;;;;0.68;0.68;;;2.10;1.00;;;;;;4952115;28;20054;-81
2023/11/29 10:29:50;;;;;;;0.57;0.57;;;2.10;1.00;;;;;;4948928;28;20034;-83
2023/11/29 10:32:18;;;;;;;1.33;1.00;;;2.10;1.00;;;;;;4964641;28;20038;-80
2023/11/29 10:34:46;;;;;;;0.38;0.38;;;2.10;1.00;;;;;;4964223;28;20480;-83
2023/11/29 10:37:13;;;;;;;0.32;0.30;;;2.10;1.00;;;;;;4946860;28;20043;-79
2023/11/29 10:39:45;;;;;;;0.35;0.35;;;2.10;1.00;;;;;;4950373;28;20042;-80
2023/11/29 10:42:12;;;;;;;3.22;1.42;;;2.20;1.00;;;;;;4965391;28;20751;-82
2023/11/29 10:44:39;;;;;;;0.90;0.90;;;2.20;1.00;;;;;;4966690;28;20469;-81
2023/11/29 10:47:30;;;;;;;2.10;1.50;;;2.20;1.00;;;;;;4926686;28;1111090;-80
2023/11/29 10:50:01;;;;;;;1.73;1.60;;;2.20;1.00;;;;;;4967516;28;20039;-85
2023/11/29 10:52:27;;;;;;;;;;;2.20;1.00;;;;;;4966711;28;20278;-84
2023/11/29 10:54:54;;;;;;;1.98;1.48;;;2.20;1.00;;;;;;4945592;28;20471;-84
2023/11/29 10:57:28;;;;;;;2.45;1.27;;;2.30;1.00;;;;;;4968203;28;20035;-83
2023/11/29 11:00:13;;;;;;;1.88;1.77;;;2.40;1.00;;;;;;4948680;28;20043;-82
2023/11/29 11:02:44;;;;;;;0.95;0.75;;;2.40;1.00;;;;;;4967322;28;20476;-82
2023/11/29 11:05:11;;;;;;;1.38;1.27;;;2.40;1.00;;;;;;4966037;28;20081;-84
2023/11/29 11:07:45;;;;;;;4.95;1.45;;;2.50;1.00;;;;;;4971730;28;20038;-85
2023/11/29 11:10:24;;;;;;;1.30;1.25;;;2.50;1.00;;;;;;4971899;28;20031;-81
2023/11/29 11:12:52;;;;;;;0.73;0.73;;;2.50;1.00;;;;;;4968603;28;20380;-80
2023/11/29 11:15:28;;;;;;;1.67;1.45;;;2.60;1.00;;;;;;4968695;28;20042;-83
2023/11/29 11:18:03;;;;;;;3.10;2.63;;;2.60;1.00;;;;;;4975550;28;20062;-83
2023/11/29 11:20:40;;;;;;;1.33;1.25;;;2.60;1.00;;;;;;4951313;28;20042;-84
2023/11/29 11:23:06;;;;;;;5.63;2.05;;;2.60;1.00;;;;;;4948483;28;20041;-82
2023/11/29 11:25:35;;;;;;;0.98;0.90;;;2.70;1.00;;;;;;4966829;28;20477;-84
2023/11/29 11:28:03;;;;;;;0.40;0.40;;;2.70;1.00;;;;;;4968105;28;20058;-82
2023/11/29 11:30:29;;;;;;;1.38;1.27;;;2.80;1.00;;;;;;4966337;28;20107;-85
2023/11/29 11:32:57;;;;;;;2.22;1.02;;;3.00;1.00;;;;;;4949369;28;20039;-84
2023/11/29 11:35:31;;;;;;;0.47;0.47;;;3.20;1.00;;;;;;4970653;28;20039;-83
2023/11/29 11:37:59;;;;;;;2.30;1.55;;;3.40;1.00;;;;;;4965331;28;20409;-80
2023/11/29 11:40:31;;;;;;;15.13;3.20;;;3.50;1.00;;;;;;4945044;28;20035;-84
2023/11/29 11:42:59;;;;;;;1.02;0.98;;;3.40;1.00;;;;;;4951677;28;20042;-83
2023/11/29 11:45:33;;;;;;;1.88;1.55;;;3.50;1.00;;;;;;4967095;28;20057;-86
2023/11/29 11:48:01;;;;;;;0.20;0.20;;;3.60;1.00;;;;;;4940270;29;20051;-83
2023/11/29 11:50:29;;;;;;;6.63;1.90;;;3.90;1.00;;;;;;4935953;29;20047;-82
2023/11/29 11:53:03;;;;;;;0.40;0.40;;;4.00;1.00;;;;;;4938175;29;20059;-86
2023/11/29 11:55:30;;;;;;;10.32;1.88;;;3.90;1.00;;;;;;4940468;29;20151;-85
2023/11/29 11:57:59;;;;;;;0.35;0.35;;;3.80;99.90;;;;;;4944357;29;20048;-84
2023/11/29 12:00:27;;;;;;;1.55;1.45;;;3.70;1.00;;;;;;4935536;29;20202;-83
2023/11/29 12:02:53;;;;;;;1.20;1.10;;;3.80;1.00;;;;;;4934323;28;20048;-85
2023/11/29 12:05:21;;;;;;;1.13;1.05;;;3.90;1.00;;;;;;4941518;29;20046;-83
2023/11/29 12:07:48;;;;;;;1.38;1.20;;;3.90;1.00;;;;;;4940788;29;20051;-85
2023/11/29 12:10:15;;;;;;;1.05;1.05;;;4.00;1.00;;;;;;4941145;29;20047;-84
2023/11/29 12:12:42;;;;;;;3.55;1.50;;;3.90;99.90;;;;;;4941904;29;20551;-85
2023/11/29 12:15:14;;;;;;;1.23;1.15;;;3.90;1.00;;;;;;4932646;29;20059;-87
2023/11/29 12:17:40;;;;;;;2.05;1.42;;;3.80;1.00;;;;;;4941502;29;20047;-87
2023/11/29 12:20:08;;;;;;;1.58;1.48;;;3.60;1.00;;;;;;4965367;28;20038;-83
2023/11/29 12:22:38;;;;;;;0.75;0.75;;;3.60;1.00;;;;;;4941885;28;20089;-83
2023/11/29 12:25:13;;;;;;;1.13;0.83;;;3.50;1.00;;;;;;4966984;28;20042;-79
2023/11/29 12:27:43;;;;;;;3.50;1.85;;;3.50;1.00;;;;;;4970977;28;20043;-82
2023/11/29 12:30:11;;;;;;;0.52;0.52;;;3.50;1.00;;;;;;4965233;28;20062;-85
2023/11/29 12:32:38;;;;;;;0.73;0.32;;;3.50;1.00;;;;;;4961247;28;20090;-81
2023/11/29 12:35:06;;;;;;;1.02;0.60;;;3.60;1.00;;;;;;4964499;28;20400;-84
2023/11/29 12:37:33;;;;;;;0.85;0.85;;;3.50;1.00;;;;;;4967642;28;20042;-83
2023/11/29 12:39:59;;;;;;;0.17;0.17;;;3.50;1.00;;;;;;4964628;28;20046;-84
2023/11/29 12:42:29;;;;;;;1.45;0.57;;;3.60;1.00;;;;;;4944410;28;20058;-83
2023/11/29 12:44:55;;;;;;;1.85;1.65;;;3.50;1.00;;;;;;4952407;28;20039;-83
2023/11/29 12:47:28;;;;;;;0.25;0.25;;;3.50;1.00;;;;;;4951460;28;20042;-79
2023/11/29 12:49:54;;;;;;;0.60;0.60;;;3.50;1.00;;;;;;4966315;28;20503;-83
2023/11/29 12:52:21;;;;;;;0.70;0.63;;;3.50;1.00;;;;;;4965438;28;20045;-84
2023/11/29 12:54:47;;;;;;;2.72;2.10;;;3.50;1.00;;;;;;4958120;28;20043;-84